sensor_id;sensor_type;location;lat;lon;timestamp;P1;durP1;ratioP1;P2;durP2;ratioP2
18685;SDS011;9473;52.342;13.110;2023-04-24T00:00:13;9.77;;;4.95;;
18685;SDS011;9473;52.342;13.110;2023-04-24T00:02:40;7.20;;;5.15;;
18685;SDS011;9473;52.342;13.110;2023-04-24T00:05:11;8.43;;;4.72;;
18685;SDS011;9473;52.342;13.110;2023-04-24T00:07:38;8.38;;;4.90;;
18685;SDS011;9473;52.342;13.110;2023-04-24T00:10:06;6.80;;;4.18;;
18685;SDS011;9473;52.342;13.110;2023-04-24T00:12:33;6.75;;;4.55;;
18685;SDS011;9473;52.342;13.110;2023-04-24T00:15:01;9.55;;;4.75;;
18685;SDS011;9473;52.342;13.110;2023-04-24T00:17:29;9.10;;;4.80;;
18685;SDS011;9473;52.342;13.110;2023-04-24T00:19:56;11.18;;;5.63;;
18685;SDS011;9473;52.342;13.110;2023-04-24T00:22:24;9.50;;;5.57;;
18685;SDS011;9473;52.342;13.110;2023-04-24T00:24:51;11.90;;;5.32;;
18685;SDS011;9473;52.342;13.110;2023-04-24T00:27:17;11.25;;;5.13;;
18685;SDS011;9473;52.342;13.110;2023-04-24T00:29:44;8.77;;;5.00;;
18685;SDS011;9473;52.342;13.110;2023-04-24T00:32:13;10.93;;;5.00;;
18685;SDS011;9473;52.342;13.110;2023-04-24T00:34:40;10.15;;;5.20;;
18685;SDS011;9473;52.342;13.110;2023-04-24T00:37:07;10.07;;;5.20;;
18685;SDS011;9473;52.342;13.110;2023-04-24T00:39:34;8.50;;;4.95;;
18685;SDS011;9473;52.342;13.110;2023-04-24T00:42:01;12.05;;;5.20;;
18685;SDS011;9473;52.342;13.110;2023-04-24T00:44:28;10.27;;;5.35;;
18685;SDS011;9473;52.342;13.110;2023-04-24T00:46:55;6.30;;;4.40;;
18685;SDS011;9473;52.342;13.110;2023-04-24T00:49:23;7.82;;;4.38;;
18685;SDS011;9473;52.342;13.110;2023-04-24T00:51:50;9.93;;;4.70;;
18685;SDS011;9473;52.342;13.110;2023-04-24T00:54:17;8.65;;;5.65;;
18685;SDS011;9473;52.342;13.110;2023-04-24T00:56:44;10.20;;;5.53;;
18685;SDS011;9473;52.342;13.110;2023-04-24T00:59:11;9.82;;;5.35;;
18685;SDS011;9473;52.342;13.110;2023-04-24T01:01:39;8.68;;;4.90;;
18685;SDS011;9473;52.342;13.110;2023-04-24T01:04:06;11.98;;;5.30;;
18685;SDS011;9473;52.342;13.110;2023-04-24T01:06:36;10.63;;;4.95;;
18685;SDS011;9473;52.342;13.110;2023-04-24T01:09:05;6.93;;;5.05;;
18685;SDS011;9473;52.342;13.110;2023-04-24T01:11:33;8.93;;;5.13;;
18685;SDS011;9473;52.342;13.110;2023-04-24T01:14:00;10.43;;;5.13;;
18685;SDS011;9473;52.342;13.110;2023-04-24T01:16:28;8.15;;;4.80;;
18685;SDS011;9473;52.342;13.110;2023-04-24T01:18:55;7.47;;;5.10;;
18685;SDS011;9473;52.342;13.110;2023-04-24T01:21:21;8.07;;;4.95;;
18685;SDS011;9473;52.342;13.110;2023-04-24T01:23:51;9.32;;;5.10;;
18685;SDS011;9473;52.342;13.110;2023-04-24T01:26:18;10.23;;;5.38;;
18685;SDS011;9473;52.342;13.110;2023-04-24T01:28:46;9.27;;;5.20;;
18685;SDS011;9473;52.342;13.110;2023-04-24T01:31:12;6.95;;;4.50;;
18685;SDS011;9473;52.342;13.110;2023-04-24T01:33:40;9.35;;;4.40;;
18685;SDS011;9473;52.342;13.110;2023-04-24T01:36:07;9.38;;;5.85;;
18685;SDS011;9473;52.342;13.110;2023-04-24T01:38:35;10.63;;;6.35;;
18685;SDS011;9473;52.342;13.110;2023-04-24T01:41:04;9.25;;;5.85;;
18685;SDS011;9473;52.342;13.110;2023-04-24T01:43:31;10.75;;;5.20;;
18685;SDS011;9473;52.342;13.110;2023-04-24T01:45:58;8.43;;;5.72;;
18685;SDS011;9473;52.342;13.110;2023-04-24T01:48:26;11.48;;;5.65;;
18685;SDS011;9473;52.342;13.110;2023-04-24T01:50:53;8.15;;;5.07;;
18685;SDS011;9473;52.342;13.110;2023-04-24T01:53:20;11.50;;;6.03;;
18685;SDS011;9473;52.342;13.110;2023-04-24T01:55:47;10.60;;;5.97;;
18685;SDS011;9473;52.342;13.110;2023-04-24T01:58:15;11.05;;;5.93;;
18685;SDS011;9473;52.342;13.110;2023-04-24T02:00:42;6.85;;;4.60;;
18685;SDS011;9473;52.342;13.110;2023-04-24T02:03:09;10.32;;;5.80;;
18685;SDS011;9473;52.342;13.110;2023-04-24T02:05:36;10.57;;;5.40;;
18685;SDS011;9473;52.342;13.110;2023-04-24T02:08:03;8.35;;;5.10;;
18685;SDS011;9473;52.342;13.110;2023-04-24T02:10:30;6.63;;;3.67;;
18685;SDS011;9473;52.342;13.110;2023-04-24T02:12:57;13.52;;;5.40;;
18685;SDS011;9473;52.342;13.110;2023-04-24T02:15:25;8.55;;;5.57;;
18685;SDS011;9473;52.342;13.110;2023-04-24T02:17:52;11.25;;;5.32;;
18685;SDS011;9473;52.342;13.110;2023-04-24T02:20:19;13.60;;;5.40;;
18685;SDS011;9473;52.342;13.110;2023-04-24T02:22:46;10.73;;;5.30;;
18685;SDS011;9473;52.342;13.110;2023-04-24T02:25:13;12.20;;;5.45;;
18685;SDS011;9473;52.342;13.110;2023-04-24T02:27:40;8.73;;;5.65;;
18685;SDS011;9473;52.342;13.110;2023-04-24T02:30:07;9.85;;;4.60;;
18685;SDS011;9473;52.342;13.110;2023-04-24T02:32:36;8.88;;;4.82;;
18685;SDS011;9473;52.342;13.110;2023-04-24T02:35:04;6.70;;;4.25;;
18685;SDS011;9473;52.342;13.110;2023-04-24T02:37:31;8.70;;;5.07;;
18685;SDS011;9473;52.342;13.110;2023-04-24T02:39:58;7.10;;;4.63;;
18685;SDS011;9473;52.342;13.110;2023-04-24T02:42:25;6.75;;;4.75;;
18685;SDS011;9473;52.342;13.110;2023-04-24T02:44:52;13.35;;;5.65;;
18685;SDS011;9473;52.342;13.110;2023-04-24T02:47:19;8.45;;;5.35;;
18685;SDS011;9473;52.342;13.110;2023-04-24T02:49:47;9.98;;;5.95;;
18685;SDS011;9473;52.342;13.110;2023-04-24T02:52:14;11.82;;;6.18;;
18685;SDS011;9473;52.342;13.110;2023-04-24T02:54:41;10.02;;;5.13;;
18685;SDS011;9473;52.342;13.110;2023-04-24T02:57:08;8.95;;;5.22;;
18685;SDS011;9473;52.342;13.110;2023-04-24T02:59:35;7.13;;;5.00;;
18685;SDS011;9473;52.342;13.110;2023-04-24T03:02:02;9.00;;;4.90;;
18685;SDS011;9473;52.342;13.110;2023-04-24T03:04:29;8.57;;;5.53;;
18685;SDS011;9473;52.342;13.110;2023-04-24T03:06:58;10.05;;;5.05;;
18685;SDS011;9473;52.342;13.110;2023-04-24T03:09:26;11.88;;;4.97;;
18685;SDS011;9473;52.342;13.110;2023-04-24T03:11:52;10.75;;;5.50;;
18685;SDS011;9473;52.342;13.110;2023-04-24T03:14:20;10.98;;;5.68;;
18685;SDS011;9473;52.342;13.110;2023-04-24T03:16:47;9.30;;;5.88;;
18685;SDS011;9473;52.342;13.110;2023-04-24T03:19:15;6.15;;;3.90;;
18685;SDS011;9473;52.342;13.110;2023-04-24T03:21:42;11.32;;;5.10;;
18685;SDS011;9473;52.342;13.110;2023-04-24T03:24:10;9.43;;;5.25;;
18685;SDS011;9473;52.342;13.110;2023-04-24T03:26:37;11.60;;;5.78;;
18685;SDS011;9473;52.342;13.110;2023-04-24T03:29:04;9.23;;;5.63;;
18685;SDS011;9473;52.342;13.110;2023-04-24T03:31:30;10.65;;;5.10;;
18685;SDS011;9473;52.342;13.110;2023-04-24T03:33:57;8.55;;;4.68;;
18685;SDS011;9473;52.342;13.110;2023-04-24T03:36:24;9.07;;;5.35;;
18685;SDS011;9473;52.342;13.110;2023-04-24T03:38:52;10.73;;;5.00;;
18685;SDS011;9473;52.342;13.110;2023-04-24T03:41:21;8.70;;;5.40;;
18685;SDS011;9473;52.342;13.110;2023-04-24T03:43:48;11.73;;;5.68;;
18685;SDS011;9473;52.342;13.110;2023-04-24T03:46:15;7.78;;;5.28;;
18685;SDS011;9473;52.342;13.110;2023-04-24T03:48:41;9.60;;;5.35;;
18685;SDS011;9473;52.342;13.110;2023-04-24T03:51:08;9.65;;;5.20;;
18685;SDS011;9473;52.342;13.110;2023-04-24T03:53:35;7.15;;;4.95;;
18685;SDS011;9473;52.342;13.110;2023-04-24T03:56:02;10.57;;;4.85;;
18685;SDS011;9473;52.342;13.110;2023-04-24T03:58:31;7.15;;;5.00;;
18685;SDS011;9473;52.342;13.110;2023-04-24T04:00:58;7.72;;;4.70;;
18685;SDS011;9473;52.342;13.110;2023-04-24T04:03:25;8.88;;;5.70;;
18685;SDS011;9473;52.342;13.110;2023-04-24T04:05:51;11.38;;;5.50;;
18685;SDS011;9473;52.342;13.110;2023-04-24T04:08:19;10.65;;;5.85;;
18685;SDS011;9473;52.342;13.110;2023-04-24T04:10:46;9.30;;;5.15;;
18685;SDS011;9473;52.342;13.110;2023-04-24T04:13:12;10.57;;;4.90;;
18685;SDS011;9473;52.342;13.110;2023-04-24T04:15:41;10.13;;;5.13;;
18685;SDS011;9473;52.342;13.110;2023-04-24T04:18:08;8.05;;;5.20;;
18685;SDS011;9473;52.342;13.110;2023-04-24T04:20:35;10.18;;;5.18;;
18685;SDS011;9473;52.342;13.110;2023-04-24T04:23:02;8.07;;;5.10;;
18685;SDS011;9473;52.342;13.110;2023-04-24T04:25:29;9.55;;;5.07;;
18685;SDS011;9473;52.342;13.110;2023-04-24T04:27:56;5.93;;;4.40;;
18685;SDS011;9473;52.342;13.110;2023-04-24T04:30:24;7.95;;;4.78;;
18685;SDS011;9473;52.342;13.110;2023-04-24T04:32:53;7.85;;;4.97;;
18685;SDS011;9473;52.342;13.110;2023-04-24T04:35:20;7.72;;;5.35;;
18685;SDS011;9473;52.342;13.110;2023-04-24T04:37:47;6.78;;;4.90;;
18685;SDS011;9473;52.342;13.110;2023-04-24T04:40:14;11.32;;;5.40;;
18685;SDS011;9473;52.342;13.110;2023-04-24T04:42:41;9.32;;;4.63;;
18685;SDS011;9473;52.342;13.110;2023-04-24T04:45:10;6.88;;;4.78;;
18685;SDS011;9473;52.342;13.110;2023-04-24T04:47:37;8.68;;;5.43;;
18685;SDS011;9473;52.342;13.110;2023-04-24T04:50:07;7.28;;;4.85;;
18685;SDS011;9473;52.342;13.110;2023-04-24T04:52:35;7.28;;;4.90;;
18685;SDS011;9473;52.342;13.110;2023-04-24T04:55:02;6.32;;;4.03;;
18685;SDS011;9473;52.342;13.110;2023-04-24T04:57:30;6.93;;;4.35;;
18685;SDS011;9473;52.342;13.110;2023-04-24T04:59:57;5.45;;;3.70;;
18685;SDS011;9473;52.342;13.110;2023-04-24T05:02:23;5.20;;;3.72;;
18685;SDS011;9473;52.342;13.110;2023-04-24T05:04:50;7.47;;;2.95;;
18685;SDS011;9473;52.342;13.110;2023-04-24T05:07:19;5.72;;;3.45;;
18685;SDS011;9473;52.342;13.110;2023-04-24T05:09:46;4.88;;;3.20;;
18685;SDS011;9473;52.342;13.110;2023-04-24T05:12:12;5.72;;;2.92;;
18685;SDS011;9473;52.342;13.110;2023-04-24T05:14:39;5.10;;;2.88;;
18685;SDS011;9473;52.342;13.110;2023-04-24T05:17:06;6.00;;;2.80;;
18685;SDS011;9473;52.342;13.110;2023-04-24T05:19:33;4.85;;;2.45;;
18685;SDS011;9473;52.342;13.110;2023-04-24T05:22:02;2.78;;;2.00;;
18685;SDS011;9473;52.342;13.110;2023-04-24T05:24:32;4.28;;;2.20;;
18685;SDS011;9473;52.342;13.110;2023-04-24T05:26:59;4.72;;;2.38;;
18685;SDS011;9473;52.342;13.110;2023-04-24T05:29:27;3.75;;;2.10;;
18685;SDS011;9473;52.342;13.110;2023-04-24T05:31:55;3.22;;;1.88;;
18685;SDS011;9473;52.342;13.110;2023-04-24T05:34:22;2.85;;;1.95;;
18685;SDS011;9473;52.342;13.110;2023-04-24T05:36:49;9.85;;;2.45;;
18685;SDS011;9473;52.342;13.110;2023-04-24T05:39:17;3.47;;;2.10;;
18685;SDS011;9473;52.342;13.110;2023-04-24T05:41:45;3.47;;;1.95;;
18685;SDS011;9473;52.342;13.110;2023-04-24T05:44:12;2.45;;;1.70;;
18685;SDS011;9473;52.342;13.110;2023-04-24T05:46:39;3.90;;;1.83;;
18685;SDS011;9473;52.342;13.110;2023-04-24T05:49:06;2.90;;;2.03;;
18685;SDS011;9473;52.342;13.110;2023-04-24T05:51:33;4.35;;;1.70;;
18685;SDS011;9473;52.342;13.110;2023-04-24T05:54:00;2.72;;;1.65;;
18685;SDS011;9473;52.342;13.110;2023-04-24T05:56:28;4.07;;;1.83;;
18685;SDS011;9473;52.342;13.110;2023-04-24T05:58:57;2.47;;;1.63;;
18685;SDS011;9473;52.342;13.110;2023-04-24T06:01:23;3.70;;;1.52;;
18685;SDS011;9473;52.342;13.110;2023-04-24T06:03:51;3.78;;;1.42;;
18685;SDS011;9473;52.342;13.110;2023-04-24T06:06:18;2.67;;;1.60;;
18685;SDS011;9473;52.342;13.110;2023-04-24T06:08:45;3.70;;;1.40;;
18685;SDS011;9473;52.342;13.110;2023-04-24T06:11:12;2.30;;;1.60;;
18685;SDS011;9473;52.342;13.110;2023-04-24T06:13:39;3.83;;;1.60;;
18685;SDS011;9473;52.342;13.110;2023-04-24T06:16:07;3.47;;;1.55;;
18685;SDS011;9473;52.342;13.110;2023-04-24T06:18:34;2.65;;;1.50;;
18685;SDS011;9473;52.342;13.110;2023-04-24T06:21:01;2.72;;;1.35;;
18685;SDS011;9473;52.342;13.110;2023-04-24T06:23:28;3.15;;;1.27;;
18685;SDS011;9473;52.342;13.110;2023-04-24T06:25:57;2.33;;;1.27;;
18685;SDS011;9473;52.342;13.110;2023-04-24T06:28:24;1.70;;;1.10;;
18685;SDS011;9473;52.342;13.110;2023-04-24T06:30:51;1.17;;;0.98;;
18685;SDS011;9473;52.342;13.110;2023-04-24T06:33:19;2.65;;;1.23;;
18685;SDS011;9473;52.342;13.110;2023-04-24T06:35:46;2.30;;;1.20;;
18685;SDS011;9473;52.342;13.110;2023-04-24T06:38:13;2.80;;;1.10;;
18685;SDS011;9473;52.342;13.110;2023-04-24T06:40:40;1.55;;;0.90;;
18685;SDS011;9473;52.342;13.110;2023-04-24T06:43:07;2.20;;;0.85;;
18685;SDS011;9473;52.342;13.110;2023-04-24T06:45:35;1.95;;;0.93;;
18685;SDS011;9473;52.342;13.110;2023-04-24T06:48:04;3.05;;;0.93;;
18685;SDS011;9473;52.342;13.110;2023-04-24T06:50:33;2.33;;;1.00;;
18685;SDS011;9473;52.342;13.110;2023-04-24T06:53:00;1.20;;;0.85;;
18685;SDS011;9473;52.342;13.110;2023-04-24T06:55:27;3.50;;;0.85;;
18685;SDS011;9473;52.342;13.110;2023-04-24T06:57:54;1.67;;;0.85;;
18685;SDS011;9473;52.342;13.110;2023-04-24T07:00:20;2.38;;;0.93;;
18685;SDS011;9473;52.342;13.110;2023-04-24T07:02:49;1.17;;;0.98;;
18685;SDS011;9473;52.342;13.110;2023-04-24T07:05:16;2.22;;;0.93;;
18685;SDS011;9473;52.342;13.110;2023-04-24T07:07:46;1.98;;;1.05;;
18685;SDS011;9473;52.342;13.110;2023-04-24T07:10:14;1.90;;;1.00;;
18685;SDS011;9473;52.342;13.110;2023-04-24T07:12:41;1.25;;;0.90;;
18685;SDS011;9473;52.342;13.110;2023-04-24T07:15:08;2.58;;;1.20;;
18685;SDS011;9473;52.342;13.110;2023-04-24T07:17:35;1.45;;;0.80;;
18685;SDS011;9473;52.342;13.110;2023-04-24T07:20:03;2.42;;;1.10;;
18685;SDS011;9473;52.342;13.110;2023-04-24T07:22:32;2.10;;;1.10;;
18685;SDS011;9473;52.342;13.110;2023-04-24T07:25:00;1.50;;;1.00;;
18685;SDS011;9473;52.342;13.110;2023-04-24T07:27:28;2.13;;;1.00;;
18685;SDS011;9473;52.342;13.110;2023-04-24T07:29:54;2.83;;;0.88;;
18685;SDS011;9473;52.342;13.110;2023-04-24T07:32:21;4.38;;;0.90;;
18685;SDS011;9473;52.342;13.110;2023-04-24T07:34:48;2.53;;;0.90;;
18685;SDS011;9473;52.342;13.110;2023-04-24T07:37:15;1.48;;;0.95;;
18685;SDS011;9473;52.342;13.110;2023-04-24T07:39:42;2.17;;;0.90;;
18685;SDS011;9473;52.342;13.110;2023-04-24T07:42:11;3.00;;;0.80;;
18685;SDS011;9473;52.342;13.110;2023-04-24T07:44:38;1.20;;;0.80;;
18685;SDS011;9473;52.342;13.110;2023-04-24T07:47:05;1.02;;;0.70;;
18685;SDS011;9473;52.342;13.110;2023-04-24T07:49:32;1.63;;;0.80;;
18685;SDS011;9473;52.342;13.110;2023-04-24T07:52:00;0.80;;;0.60;;
18685;SDS011;9473;52.342;13.110;2023-04-24T07:54:27;1.40;;;1.00;;
18685;SDS011;9473;52.342;13.110;2023-04-24T07:56:54;1.50;;;0.80;;
18685;SDS011;9473;52.342;13.110;2023-04-24T07:59:22;2.47;;;0.80;;
18685;SDS011;9473;52.342;13.110;2023-04-24T08:01:49;1.98;;;0.70;;
18685;SDS011;9473;52.342;13.110;2023-04-24T08:04:16;0.85;;;0.65;;
18685;SDS011;9473;52.342;13.110;2023-04-24T08:06:43;4.60;;;1.35;;
18685;SDS011;9473;52.342;13.110;2023-04-24T08:09:10;1.63;;;0.70;;
18685;SDS011;9473;52.342;13.110;2023-04-24T08:11:37;1.60;;;0.90;;
18685;SDS011;9473;52.342;13.110;2023-04-24T08:14:04;1.35;;;0.80;;
18685;SDS011;9473;52.342;13.110;2023-04-24T08:16:33;0.90;;;0.80;;
18685;SDS011;9473;52.342;13.110;2023-04-24T08:19:00;1.90;;;1.00;;
18685;SDS011;9473;52.342;13.110;2023-04-24T08:21:27;1.60;;;0.90;;
18685;SDS011;9473;52.342;13.110;2023-04-24T08:23:54;2.28;;;0.80;;
18685;SDS011;9473;52.342;13.110;2023-04-24T08:26:21;3.90;;;1.00;;
18685;SDS011;9473;52.342;13.110;2023-04-24T08:28:49;1.20;;;0.90;;
18685;SDS011;9473;52.342;13.110;2023-04-24T08:31:16;1.77;;;0.90;;
18685;SDS011;9473;52.342;13.110;2023-04-24T08:33:44;2.05;;;1.00;;
18685;SDS011;9473;52.342;13.110;2023-04-24T08:36:12;1.35;;;0.90;;
18685;SDS011;9473;52.342;13.110;2023-04-24T08:38:39;1.00;;;0.90;;
18685;SDS011;9473;52.342;13.110;2023-04-24T08:41:06;1.05;;;0.80;;
18685;SDS011;9473;52.342;13.110;2023-04-24T08:43:34;1.45;;;1.00;;
18685;SDS011;9473;52.342;13.110;2023-04-24T08:46:03;0.82;;;0.73;;
18685;SDS011;9473;52.342;13.110;2023-04-24T08:48:30;2.38;;;0.90;;
18685;SDS011;9473;52.342;13.110;2023-04-24T08:50:59;1.90;;;0.98;;
18685;SDS011;9473;52.342;13.110;2023-04-24T08:53:27;1.05;;;0.80;;
18685;SDS011;9473;52.342;13.110;2023-04-24T08:55:55;1.13;;;0.95;;
18685;SDS011;9473;52.342;13.110;2023-04-24T08:58:22;5.60;;;1.00;;
18685;SDS011;9473;52.342;13.110;2023-04-24T09:00:49;4.57;;;1.00;;
18685;SDS011;9473;52.342;13.110;2023-04-24T09:03:16;1.15;;;0.70;;
18685;SDS011;9473;52.342;13.110;2023-04-24T09:05:43;0.98;;;0.70;;
18685;SDS011;9473;52.342;13.110;2023-04-24T09:08:14;2.00;;;0.60;;
18685;SDS011;9473;52.342;13.110;2023-04-24T09:10:41;2.35;;;0.82;;
18685;SDS011;9473;52.342;13.110;2023-04-24T09:13:08;2.70;;;0.90;;
18685;SDS011;9473;52.342;13.110;2023-04-24T09:15:35;1.15;;;0.73;;
18685;SDS011;9473;52.342;13.110;2023-04-24T09:18:02;1.92;;;0.90;;
18685;SDS011;9473;52.342;13.110;2023-04-24T09:20:29;2.03;;;0.73;;
18685;SDS011;9473;52.342;13.110;2023-04-24T09:22:57;1.00;;;0.73;;
18685;SDS011;9473;52.342;13.110;2023-04-24T09:25:26;1.58;;;0.90;;
18685;SDS011;9473;52.342;13.110;2023-04-24T09:27:59;3.45;;;0.70;;
18685;SDS011;9473;52.342;13.110;2023-04-24T09:30:26;1.60;;;0.80;;
18685;SDS011;9473;52.342;13.110;2023-04-24T09:35:35;3.22;;;0.70;;
18685;SDS011;9473;52.342;13.110;2023-04-24T09:38:02;2.30;;;0.80;;
18685;SDS011;9473;52.342;13.110;2023-04-24T09:40:30;2.55;;;0.77;;
18685;SDS011;9473;52.342;13.110;2023-04-24T09:43:00;0.95;;;0.77;;
18685;SDS011;9473;52.342;13.110;2023-04-24T09:45:28;1.90;;;0.88;;
18685;SDS011;9473;52.342;13.110;2023-04-24T09:48:01;1.33;;;0.95;;
18685;SDS011;9473;52.342;13.110;2023-04-24T09:50:29;2.03;;;0.75;;
18685;SDS011;9473;52.342;13.110;2023-04-24T09:52:58;2.13;;;0.90;;
18685;SDS011;9473;52.342;13.110;2023-04-24T09:55:25;2.92;;;0.85;;
18685;SDS011;9473;52.342;13.110;2023-04-24T09:57:54;3.08;;;0.90;;
18685;SDS011;9473;52.342;13.110;2023-04-24T10:00:22;1.38;;;0.75;;
18685;SDS011;9473;52.342;13.110;2023-04-24T10:02:50;1.55;;;0.90;;
18685;SDS011;9473;52.342;13.110;2023-04-24T10:05:18;5.53;;;0.90;;
18685;SDS011;9473;52.342;13.110;2023-04-24T10:07:45;2.33;;;0.90;;
18685;SDS011;9473;52.342;13.110;2023-04-24T10:10:12;4.90;;;0.98;;
18685;SDS011;9473;52.342;13.110;2023-04-24T10:12:39;1.77;;;0.80;;
18685;SDS011;9473;52.342;13.110;2023-04-24T10:15:09;1.08;;;0.70;;
18685;SDS011;9473;52.342;13.110;2023-04-24T10:17:38;2.50;;;0.80;;
18685;SDS011;9473;52.342;13.110;2023-04-24T10:20:06;1.85;;;0.80;;
18685;SDS011;9473;52.342;13.110;2023-04-24T10:22:36;4.10;;;1.00;;
18685;SDS011;9473;52.342;13.110;2023-04-24T10:25:03;3.40;;;1.10;;
18685;SDS011;9473;52.342;13.110;2023-04-24T10:27:31;1.20;;;0.77;;
18685;SDS011;9473;52.342;13.110;2023-04-24T10:29:58;1.02;;;0.68;;
18685;SDS011;9473;52.342;13.110;2023-04-24T10:32:27;2.03;;;0.80;;
18685;SDS011;9473;52.342;13.110;2023-04-24T10:34:54;1.00;;;0.70;;
18685;SDS011;9473;52.342;13.110;2023-04-24T10:37:21;1.10;;;0.85;;
18685;SDS011;9473;52.342;13.110;2023-04-24T10:39:48;0.70;;;0.70;;
18685;SDS011;9473;52.342;13.110;2023-04-24T10:42:16;1.25;;;0.80;;
18685;SDS011;9473;52.342;13.110;2023-04-24T10:44:43;2.63;;;0.85;;
18685;SDS011;9473;52.342;13.110;2023-04-24T10:47:13;2.33;;;0.90;;
18685;SDS011;9473;52.342;13.110;2023-04-24T10:49:42;3.15;;;0.65;;
18685;SDS011;9473;52.342;13.110;2023-04-24T10:52:09;2.30;;;0.65;;
18685;SDS011;9473;52.342;13.110;2023-04-24T10:54:41;1.73;;;0.90;;
18685;SDS011;9473;52.342;13.110;2023-04-24T10:57:27;1.45;;;0.85;;
18685;SDS011;9473;52.342;13.110;2023-04-24T11:00:10;1.13;;;0.80;;
18685;SDS011;9473;52.342;13.110;2023-04-24T11:02:39;0.80;;;0.70;;
18685;SDS011;9473;52.342;13.110;2023-04-24T11:05:14;2.35;;;1.00;;
18685;SDS011;9473;52.342;13.110;2023-04-24T11:10:27;0.77;;;0.70;;
18685;SDS011;9473;52.342;13.110;2023-04-24T11:12:54;2.95;;;0.80;;
18685;SDS011;9473;52.342;13.110;2023-04-24T11:15:21;0.95;;;0.60;;
18685;SDS011;9473;52.342;13.110;2023-04-24T11:17:48;4.30;;;0.80;;
18685;SDS011;9473;52.342;13.110;2023-04-24T11:20:17;1.25;;;0.70;;
18685;SDS011;9473;52.342;13.110;2023-04-24T11:22:44;2.25;;;0.70;;
18685;SDS011;9473;52.342;13.110;2023-04-24T11:25:11;3.40;;;1.00;;
18685;SDS011;9473;52.342;13.110;2023-04-24T11:27:39;2.80;;;0.75;;
18685;SDS011;9473;52.342;13.110;2023-04-24T11:30:07;2.00;;;0.70;;
18685;SDS011;9473;52.342;13.110;2023-04-24T11:32:35;2.13;;;1.15;;
18685;SDS011;9473;52.342;13.110;2023-04-24T11:35:03;1.77;;;0.70;;
18685;SDS011;9473;52.342;13.110;2023-04-24T11:37:35;4.78;;;0.57;;
18685;SDS011;9473;52.342;13.110;2023-04-24T11:40:02;1.67;;;1.02;;
18685;SDS011;9473;52.342;13.110;2023-04-24T11:42:33;1.70;;;0.80;;
18685;SDS011;9473;52.342;13.110;2023-04-24T11:45:00;1.80;;;0.80;;
18685;SDS011;9473;52.342;13.110;2023-04-24T11:47:28;1.25;;;0.70;;
18685;SDS011;9473;52.342;13.110;2023-04-24T11:49:56;4.25;;;0.70;;
18685;SDS011;9473;52.342;13.110;2023-04-24T11:52:22;0.90;;;0.60;;
18685;SDS011;9473;52.342;13.110;2023-04-24T11:54:51;1.50;;;0.60;;
18685;SDS011;9473;52.342;13.110;2023-04-24T11:57:19;0.60;;;0.60;;
18685;SDS011;9473;52.342;13.110;2023-04-24T11:59:46;2.67;;;0.80;;
18685;SDS011;9473;52.342;13.110;2023-04-24T12:02:19;1.17;;;0.63;;
18685;SDS011;9473;52.342;13.110;2023-04-24T12:04:46;0.50;;;0.50;;
18685;SDS011;9473;52.342;13.110;2023-04-24T12:07:13;0.88;;;0.70;;
18685;SDS011;9473;52.342;13.110;2023-04-24T12:09:41;1.50;;;0.60;;
18685;SDS011;9473;52.342;13.110;2023-04-24T12:12:10;1.20;;;0.70;;
18685;SDS011;9473;52.342;13.110;2023-04-24T12:14:44;1.75;;;0.60;;
18685;SDS011;9473;52.342;13.110;2023-04-24T12:17:11;1.88;;;0.70;;
18685;SDS011;9473;52.342;13.110;2023-04-24T12:19:44;0.80;;;0.60;;
18685;SDS011;9473;52.342;13.110;2023-04-24T12:22:11;0.90;;;0.60;;
18685;SDS011;9473;52.342;13.110;2023-04-24T12:27:21;1.85;;;0.70;;
18685;SDS011;9473;52.342;13.110;2023-04-24T12:29:52;2.53;;;0.80;;
18685;SDS011;9473;52.342;13.110;2023-04-24T12:32:19;1.63;;;0.60;;
18685;SDS011;9473;52.342;13.110;2023-04-24T12:34:46;1.35;;;0.70;;
18685;SDS011;9473;52.342;13.110;2023-04-24T12:37:13;1.00;;;0.60;;
18685;SDS011;9473;52.342;13.110;2023-04-24T12:39:44;1.80;;;0.70;;
18685;SDS011;9473;52.342;13.110;2023-04-24T12:42:11;0.68;;;0.60;;
18685;SDS011;9473;52.342;13.110;2023-04-24T12:44:39;1.00;;;0.73;;
18685;SDS011;9473;52.342;13.110;2023-04-24T12:47:06;3.83;;;0.70;;
18685;SDS011;9473;52.342;13.110;2023-04-24T12:49:34;0.55;;;0.50;;
18685;SDS011;9473;52.342;13.110;2023-04-24T12:52:01;0.90;;;0.70;;
18685;SDS011;9473;52.342;13.110;2023-04-24T12:54:31;1.88;;;0.73;;
18685;SDS011;9473;52.342;13.110;2023-04-24T12:56:58;2.42;;;0.80;;
18685;SDS011;9473;52.342;13.110;2023-04-24T12:59:25;0.68;;;0.60;;
18685;SDS011;9473;52.342;13.110;2023-04-24T13:01:54;2.13;;;0.68;;
18685;SDS011;9473;52.342;13.110;2023-04-24T13:04:21;1.73;;;0.70;;
18685;SDS011;9473;52.342;13.110;2023-04-24T13:06:48;1.00;;;0.73;;
18685;SDS011;9473;52.342;13.110;2023-04-24T13:09:15;1.70;;;0.80;;
18685;SDS011;9473;52.342;13.110;2023-04-24T13:11:42;0.80;;;0.70;;
18685;SDS011;9473;52.342;13.110;2023-04-24T13:14:09;2.85;;;1.00;;
18685;SDS011;9473;52.342;13.110;2023-04-24T13:16:35;3.03;;;0.80;;
18685;SDS011;9473;52.342;13.110;2023-04-24T13:19:04;0.60;;;0.60;;
18685;SDS011;9473;52.342;13.110;2023-04-24T13:21:31;2.63;;;0.60;;
18685;SDS011;9473;52.342;13.110;2023-04-24T13:23:58;1.20;;;0.70;;
18685;SDS011;9473;52.342;13.110;2023-04-24T13:26:25;2.85;;;0.75;;
18685;SDS011;9473;52.342;13.110;2023-04-24T13:28:52;1.02;;;0.65;;
18685;SDS011;9473;52.342;13.110;2023-04-24T13:31:19;0.98;;;0.80;;
18685;SDS011;9473;52.342;13.110;2023-04-24T13:33:45;0.82;;;0.70;;
18685;SDS011;9473;52.342;13.110;2023-04-24T13:36:14;1.25;;;0.80;;
18685;SDS011;9473;52.342;13.110;2023-04-24T13:38:42;0.80;;;0.60;;
18685;SDS011;9473;52.342;13.110;2023-04-24T13:41:09;0.85;;;0.75;;
18685;SDS011;9473;52.342;13.110;2023-04-24T13:43:36;1.63;;;0.77;;
18685;SDS011;9473;52.342;13.110;2023-04-24T13:46:03;4.45;;;0.70;;
18685;SDS011;9473;52.342;13.110;2023-04-24T13:48:30;1.02;;;0.80;;
18685;SDS011;9473;52.342;13.110;2023-04-24T13:50:57;2.05;;;0.77;;
18685;SDS011;9473;52.342;13.110;2023-04-24T13:53:25;1.33;;;0.80;;
18685;SDS011;9473;52.342;13.110;2023-04-24T13:55:52;1.45;;;1.00;;
18685;SDS011;9473;52.342;13.110;2023-04-24T13:58:19;0.85;;;0.68;;
18685;SDS011;9473;52.342;13.110;2023-04-24T14:00:46;2.33;;;0.90;;
18685;SDS011;9473;52.342;13.110;2023-04-24T14:03:12;1.55;;;0.70;;
18685;SDS011;9473;52.342;13.110;2023-04-24T14:05:40;2.05;;;0.95;;
18685;SDS011;9473;52.342;13.110;2023-04-24T14:08:07;4.72;;;1.00;;
18685;SDS011;9473;52.342;13.110;2023-04-24T14:10:35;1.15;;;0.98;;
18685;SDS011;9473;52.342;13.110;2023-04-24T14:13:02;2.55;;;0.88;;
18685;SDS011;9473;52.342;13.110;2023-04-24T14:15:29;1.95;;;0.70;;
18685;SDS011;9473;52.342;13.110;2023-04-24T14:17:56;2.50;;;1.13;;
18685;SDS011;9473;52.342;13.110;2023-04-24T14:20:23;0.80;;;0.80;;
18685;SDS011;9473;52.342;13.110;2023-04-24T14:22:50;1.30;;;0.80;;
18685;SDS011;9473;52.342;13.110;2023-04-24T14:25:17;3.33;;;0.98;;
18685;SDS011;9473;52.342;13.110;2023-04-24T14:27:45;0.77;;;0.70;;
18685;SDS011;9473;52.342;13.110;2023-04-24T14:30:12;1.88;;;0.77;;
18685;SDS011;9473;52.342;13.110;2023-04-24T14:32:40;1.42;;;0.75;;
18685;SDS011;9473;52.342;13.110;2023-04-24T14:35:07;3.42;;;0.85;;
18685;SDS011;9473;52.342;13.110;2023-04-24T14:37:34;1.45;;;0.90;;
18685;SDS011;9473;52.342;13.110;2023-04-24T14:40:01;1.00;;;0.80;;
18685;SDS011;9473;52.342;13.110;2023-04-24T14:42:29;2.22;;;1.05;;
18685;SDS011;9473;52.342;13.110;2023-04-24T14:44:57;1.92;;;1.00;;
18685;SDS011;9473;52.342;13.110;2023-04-24T14:47:24;1.25;;;0.95;;
18685;SDS011;9473;52.342;13.110;2023-04-24T14:49:51;2.40;;;1.13;;
18685;SDS011;9473;52.342;13.110;2023-04-24T14:52:19;2.47;;;0.88;;
18685;SDS011;9473;52.342;13.110;2023-04-24T14:54:46;1.63;;;1.02;;